Data for 11/19/2014

Time Sea-Level Adjusted Pressure Absolute Pressure Temperature Relative Humidity Dew Point   
(mb) (inHg) (mb) (inHg) (C) (F) (%) (C) (F)
00:05 1021 30.15 850 25.1 -2.4 27.6 68 -7.5 18.5
00:10 1021 30.15 850 25.1 -2.5 27.5 71 -7.1 19.2
00:15 1021 30.15 850 25.1 -2.5 27.6 70 -7.1 19.1
00:20 1021 30.15 850 25.1 -2.7 27.1 72 -7.1 19.3
00:25 1021 30.15 850 25.1 -3 26.6 77 -6.6 20.2
00:30 1021 30.15 850 25.1 -3.1 26.5 76 -6.7 19.9
00:35 1021 30.15 850 25.1 -2.9 26.7 73 -7.1 19.2
00:40 1021 30.15 850 25.1 -3 26.7 74 -6.9 19.5
00:45 1021 30.15 850 25.1 -3.1 26.5 74 -7.1 19.2
00:50 1021 30.15 850 25.1 -3 26.7 73 -7.1 19.2
00:55 1021 30.15 850 25.1 -2.9 26.8 72 -7.3 18.9
01:00 1021 30.15 850 25.1 -2.8 26.9 70 -7.5 18.5
01:05 1021 30.15 850 25.1 -2.6 27.3 68 -7.7 18.1
01:10 1021 30.15 850 25.1 -2.5 27.4 69 -7.5 18.4
01:15 1021 30.15 850 25.1 -2.6 27.3 71 -7.3 18.9
01:20 1021 30.15 850 25.1 -2.7 27.2 68 -7.7 18.1
01:25 1021 30.15 850 25.1 -2.5 27.5 65 -8.2 17.3
01:30 1021 30.15 850 25.1 -2.3 27.9 63 -8.3 17
01:35 1021 30.15 850 25.1 -2.1 28.2 60 -8.9 16
01:40 1021 30.15 850 25.1 -1.9 28.5 60 -8.8 16.2
01:45 1021 30.15 850 25.1 -1.8 28.8 61 -8.4 16.9
01:50 1021 30.15 850 25.1 -1.9 28.6 66 -7.4 18.8
01:55 1021 30.15 850 25.1 -2.2 28.1 68 -7.3 18.9
02:00 1021 30.15 850 25.1 -2.6 27.3 72 -7 19.5
02:05 1021 30.15 850 25.1 -2.9 26.8 74 -6.9 19.6
02:10 1021 30.15 850 25.1 -3.1 26.5 75 -6.9 19.6
02:15 1021 30.15 850 25.1 -3.1 26.4 72 -7.4 18.7
02:20 1021 30.15 850 25.1 -3.1 26.4 72 -7.5 18.5
02:25 1021 30.15 850 25.1 -2.9 26.8 72 -7.3 18.8
02:30 1021 30.15 850 25.1 -2.7 27.1 68 -7.7 18.1
02:35 1021 30.15 850 25.1 -2.7 27.2 69 -7.6 18.4
02:40 1021 30.15 850 25.1 -2.8 26.9 70 -7.5 18.5
02:45 1021 30.15 850 25.1 -3.1 26.4 73 -7.4 18.7
02:50 1021 30.15 850 25.1 -3.3 26 71 -7.8 17.9
02:55 1021 30.15 850 25.1 -3.4 25.9 73 -7.6 18.4
03:00 1021 30.15 850 25.1 -3.6 25.5 74 -7.6 18.2
03:05 1021 30.15 850 25.1 -3.8 25.1 76 -7.5 18.6
03:10 1021 30.15 850 25.1 -3.9 24.9 77 -7.4 18.6
03:15 1021 30.15 850 25.1 -3.9 24.9 77 -7.4 18.7
03:20 1021 30.15 850 25.1 -4.2 24.5 78 -7.4 18.6
03:25 1021 30.15 850 25.1 -4.3 24.3 77 -7.6 18.3
03:30 1021 30.15 850 25.1 -4.2 24.5 77 -7.6 18.3
03:35 1021 30.15 850 25.1 -4.3 24.3 77 -7.8 18
03:40 1021 30.15 850 25.1 -4.3 24.2 78 -7.6 18.4
03:45 1021 30.15 850 25.1 -4.5 23.9 79 -7.6 18.4
03:50 1021 30.15 850 25.1 -4.5 23.9 78 -7.7 18.1
03:55 1021 30.15 850 25.1 -4.5 23.9 78 -7.8 18
04:00 1021 30.15 850 25.1 -4.5 24 77 -8 17.7
04:05 1021 30.15 850 25.1 -4.6 23.8 77 -8.1 17.5
04:10 1021 30.15 850 25.1 -4.7 23.6 78 -7.9 17.7
04:15 1021 30.15 850 25.1 -5 23.1 79 -8.1 17.5
04:20 1021 30.15 850 25.1 -5.3 22.4 80 -8.2 17.3
04:25 1021 30.15 850 25.1 -5.5 22.1 82 -8.2 17.3
04:30 1021 30.15 850 25.1 -5.7 21.8 82 -8.3 17.1
04:35 1021 30.15 850 25.1 -5.8 21.6 83 -8.3 17.1
04:40 1021 30.15 850 25.1 -5.8 21.6 82 -8.4 16.9
04:45 1021 30.15 850 25.1 -6.1 21.1 83 -8.5 16.6
04:50 1021 30.15 850 25.1 -6.1 20.9 82 -8.8 16.2
04:55 1021 30.15 850 25.1 -6 21.2 81 -8.8 16.2
05:00 1021 30.15 850 25.1 -6 21.2 81 -8.8 16.2
05:05 1021 30.15 850 25.1 -5.9 21.3 80 -8.8 16.2
05:10 1021 30.15 850 25.1 -6.1 21 82 -8.7 16.3
05:15 1021 30.15 850 25.1 -6.3 20.7 82 -8.8 16.1
05:20 1021 30.15 850 25.1 -6.2 20.8 82 -8.8 16.1
05:25 1021 30.15 850 25.1 -6 21.1 81 -8.8 16.2
05:30 1021 30.15 850 25.1 -5.9 21.4 81 -8.7 16.4
05:35 1021 30.15 850 25.1 -5.9 21.3 81 -8.7 16.3
05:40 1021 30.15 850 25.1 -6.2 20.9 81 -9 15.8
05:45 1021 30.15 850 25.1 -6.3 20.7 80 -9.2 15.5
05:50 1021 30.15 850 25.1 -6.1 21 80 -9.1 15.7
05:55 1021 30.15 850 25.1 -5.9 21.4 79 -9 15.8
06:00 1021 30.15 850 25.1 -6.3 20.6 81 -9.2 15.5
06:05 1021 30.15 850 25.1 -6.6 20.2 80 -9.4 15
06:10 1021 30.15 850 25.1 -6.6 20.2 80 -9.5 14.9
06:15 1021 30.15 850 25.1 -6.4 20.5 80 -9.3 15.3
06:20 1021 30.15 850 25.1 -6.6 20.2 80 -9.4 15
06:25 1021 30.15 850 25.1 -6.6 20.1 81 -9.4 15.1
06:30 1021 30.15 850 25.1 -6.5 20.3 80 -9.4 15.1
06:35 1021 30.15 850 25.1 -6.4 20.5 79 -9.4 15.1
06:40 1021 30.15 850 25.1 -6.2 20.9 78 -9.4 15.2
06:45 1021 30.15 850 25.1 -5.9 21.5 77 -9.3 15.3
06:50 1021 30.15 850 25.1 -5.5 22.1 76 -9 15.8
06:55 1021 30.15 850 25.1 -5.9 21.4 78 -9.1 15.7
07:00 1021 30.15 850 25.1 -6.4 20.6 79 -9.5 14.9
07:05 1021 30.15 850 25.1 -6.5 20.3 79 -9.6 14.8
07:10 1021 30.15 850 25.1 -6.3 20.7 79 -9.4 15.1
07:15 1021 30.15 850 25.1 -6.3 20.6 80 -9.3 15.2
07:20 1021 30.15 850 25.1 -6.4 20.4 79 -9.5 14.9
07:25 1021 30.15 850 25.1 -6.5 20.3 78 -9.7 14.6
07:30 1021 30.15 850 25.1 -6.7 20 80 -9.6 14.7
07:35 1021 30.15 850 25.1 -6.6 20.2 80 -9.5 14.9
07:40 1021 30.15 850 25.1 -6.3 20.6 79 -9.4 15
07:45 1021 30.15 850 25.1 -6.6 20.2 79 -9.7 14.6
07:50 1021 30.15 850 25.1 -6.8 19.7 79 -9.9 14.2
07:55 1021 30.15 850 25.1 -6.8 19.8 79 -9.9 14.3
08:00 1021 30.15 850 25.1 -6.9 19.5 80 -9.9 14.2
08:05 1021 30.15 850 25.1 -7.1 19.3 80 -9.9 14.1
08:10 1021 30.15 850 25.1 -7 19.5 81 -9.7 14.5
08:15 1021 30.15 850 25.1 -7 19.5 81 -9.8 14.4
08:20 1021 30.15 850 25.1 -7 19.4 81 -9.8 14.4
08:25 1021 30.15 850 25.1 -6.8 19.8 79 -9.8 14.4
08:30 1021 30.15 850 25.1 -7 19.3 80 -10 14
08:35 1021 30.15 850 25.1 -6.9 19.6 79 -10 14
08:40 1021 30.15 850 25.1 -7 19.5 80 -9.9 14.2
08:45 1020 30.12 850 25.1 -6.8 19.8 78 -10 14.1
08:50 1020 30.12 850 25.1 -6.7 19.9 78 -9.9 14.2
08:55 1020 30.12 850 25.1 -6.9 19.5 79 -10 13.9
09:00 1020 30.12 850 25.1 -6.6 20.1 76 -10.1 13.8
09:05 1020 30.12 850 25.1 -6.3 20.6 76 -9.8 14.3
09:10 1020 30.12 850 25.1 -6 21.1 77 -9.5 14.8
09:15 1021 30.15 850 25.1 -5.8 21.5 75 -9.6 14.7
09:20 1021 30.15 850 25.1 -5.6 21.8 72 -9.9 14.2
09:25 1021 30.15 850 25.1 -5.7 21.7 72 -10 14
09:30 1021 30.15 850 25.1 -5.7 21.7 71 -10.2 13.7
09:35 1021 30.15 850 25.1 -6 21.3 73 -10.1 13.8
09:40 1021 30.15 850 25.1 -6.1 21.1 73 -10.2 13.7
09:45 1021 30.15 850 25.1 -5.8 21.6 72 -10.1 13.9
09:50 1021 30.15 850 25.1 -5.6 21.9 71 -10 14
09:55 1021 30.15 850 25.1 -5.2 22.7 69 -10 14
10:00 1021 30.15 850 25.1 -4.6 23.7 67 -9.7 14.5
10:05 1021 30.15 850 25.1 -4.3 24.2 67 -9.6 14.6
10:10 1021 30.15 850 25.1 -3.8 25.1 65 -9.5 14.8
10:15 1020 30.12 850 25.1 -3.5 25.8 62 -9.7 14.6
10:20 1021 30.15 850 25.1 -2.9 26.7 62 -9.3 15.3
10:25 1020 30.12 850 25.1 -2.7 27.2 60 -9.4 15.2
10:30 1020 30.12 850 25.1 -2.5 27.5 60 -9.2 15.5
10:35 1020 30.12 850 25.1 -2.2 28 60 -9.1 15.7
10:40 1020 30.12 850 25.1 -1.8 28.7 58 -9.1 15.6
10:45 1020 30.12 850 25.1 -1.7 29 58 -8.9 16
10:50 1020 30.12 850 25.1 -1.3 29.7 56 -8.9 15.9
10:55 1020 30.12 850 25.1 -0.8 30.6 55 -8.8 16.1
11:00 1020 30.12 849 25.07 -0.3 31.5 53 -8.8 16.2
11:05 1020 30.12 850 25.1 0.2 32.3 51 -8.7 16.4
11:10 1020 30.12 849 25.07 0.4 32.6 53 -8.2 17.3
11:15 1020 30.12 849 25.07 0.4 32.6 52 -8.4 16.8
11:20 1020 30.12 849 25.07 0.2 32.4 54 -8.1 17.4
11:25 1020 30.12 849 25.07 0 32.1 54 -8.2 17.2
11:30 1020 30.12 849 25.07 0.3 32.6 50 -8.8 16.1
11:35 1020 30.12 849 25.07 0.4 32.6 52 -8.4 16.9
11:40 1020 30.12 849 25.07 0.9 33.6 51 -8.2 17.2
11:45 1020 30.12 849 25.07 1.1 34 50 -8.3 17
11:50 1020 30.12 849 25.07 1.1 34 50 -8.1 17.5
11:55 1020 30.12 849 25.07 0.8 33.5 52 -8.1 17.5
12:00 1020 30.12 849 25.07 1.2 34.2 49 -8.4 17
12:05 1020 30.12 849 25.07 1.5 34.7 49 -8.1 17.4
12:10 1020 30.12 849 25.07 1.4 34.5 49 -8.2 17.3
12:15 1020 30.12 849 25.07 1.1 34.1 50 -8.1 17.4
12:20 1020 30.12 849 25.07 1.3 34.4 50 -8.1 17.4
12:25 1020 30.12 849 25.07 1.6 34.9 49 -7.9 17.8
12:30 1020 30.12 849 25.07 1.5 34.7 50 -7.8 18
12:35 1020 30.12 849 25.07 1.4 34.6 51 -7.7 18.1
12:40 1019 30.09 849 25.07 1.6 34.9 50 -7.7 18.1
12:45 1019 30.09 849 25.07 1.6 34.9 49 -8.1 17.5
12:50 1019 30.09 849 25.07 0.8 33.4 52 -8 17.6
12:55 1019 30.09 849 25.07 0.8 33.4 50 -8.5 16.7
13:00 1019 30.09 849 25.07 1.5 34.6 48 -8.4 16.9
13:05 1019 30.09 848 25.04 1.1 33.9 49 -8.4 16.8
13:10 1019 30.09 848 25.04 0.7 33.3 49 -8.7 16.3
13:15 1019 30.09 848 25.04 1.7 35 49 -7.9 17.8
13:20 1019 30.09 848 25.04 1.3 34.3 49 -8.4 16.8
13:25 1019 30.09 848 25.04 1.4 34.6 48 -8.3 17.1
13:30 1019 30.09 848 25.04 1.8 35.3 45 -8.9 16
13:35 1019 30.09 848 25.04 2.4 36.4 46 -8.2 17.3
13:40 1019 30.09 848 25.04 2.1 35.8 46 -8.2 17.2
13:45 1019 30.09 848 25.04 2.6 36.6 45 -8.1 17.4
13:50 1019 30.09 848 25.04 2.2 35.9 47 -8.1 17.4
13:55 1019 30.09 848 25.04 1.9 35.4 48 -7.9 17.8
14:00 1019 30.09 848 25.04 2.1 35.7 47 -8.1 17.4
14:05 1019 30.09 848 25.04 1.8 35.3 48 -8.1 17.4
14:10 1019 30.09 848 25.04 2.8 37 45 -7.9 17.7
14:15 1019 30.09 848 25.04 3.2 37.8 45 -7.6 18.3
14:20 1018 30.06 848 25.04 3.3 37.9 43 -8.1 17.4
14:25 1018 30.06 848 25.04 3.1 37.6 46 -7.4 18.6
14:30 1018 30.06 848 25.04 1.8 35.2 48 -8.1 17.5
14:35 1018 30.06 848 25.04 1.2 34.1 49 -8.4 17
14:40 1018 30.06 847 25.01 1.5 34.7 47 -8.6 16.4
14:45 1018 30.06 847 25.01 2.5 36.4 46 -8.1 17.4
14:50 1018 30.06 847 25.01 2.5 36.5 45 -8.2 17.3
14:55 1018 30.06 847 25.01 1.8 35.3 46 -8.5 16.7
15:00 1018 30.06 847 25.01 1.7 35.1 46 -8.6 16.6
15:05 1018 30.06 847 25.01 2 35.6 47 -8.3 17.1
15:10 1018 30.06 847 25.01 2.9 37.3 44 -8.2 17.2
15:15 1018 30.06 847 25.01 3.4 38.1 43 -8 17.6
15:20 1018 30.06 847 25.01 3.1 37.6 43 -8.4 16.9
15:25 1018 30.06 847 25.01 2.7 36.9 44 -8.3 17
15:30 1018 30.06 847 25.01 2.6 36.7 45 -8 17.5
15:35 1018 30.06 847 25.01 2.5 36.6 45 -8.3 17.1
15:40 1018 30.06 847 25.01 2.4 36.3 46 -8.2 17.2
15:45 1018 30.06 847 25.01 2.7 36.8 44 -8.5 16.7
15:50 1018 30.06 847 25.01 2.7 36.9 45 -8.1 17.5
15:55 1018 30.06 847 25.01 2.6 36.7 45 -8.2 17.2
16:00 1018 30.06 847 25.01 3.2 37.8 42 -8.4 17
16:05 1018 30.06 847 25.01 3.5 38.3 43 -8.1 17.5
16:10 1018 30.06 847 25.01 3.5 38.2 42 -8.3 17
16:15 1018 30.06 847 25.01 3.4 38.1 42 -8.3 17.1
16:20 1018 30.06 847 25.01 3.6 38.4 42 -8.3 17.1
16:25 1018 30.06 847 25.01 3 37.3 45 -7.8 17.9
16:30 1018 30.06 847 25.01 2.2 35.9 45 -8.7 16.3
16:35 1018 30.06 847 25.01 2.4 36.4 45 -8.4 16.8
16:40 1018 30.06 847 25.01 2.4 36.3 45 -8.5 16.7
16:45 1018 30.06 847 25.01 2.6 36.6 44 -8.5 16.8
16:50 1018 30.06 847 25.01 2.1 35.7 46 -8.4 16.9
16:55 1018 30.06 847 25.01 1.7 35.1 46 -8.6 16.5
17:00 1018 30.06 847 25.01 1.9 35.4 49 -7.8 17.9
17:05 1018 30.06 847 25.01 1 33.8 50 -8.2 17.3
17:10 1018 30.06 847 25.01 0.8 33.4 51 -8.3 17.1
17:15 1018 30.06 847 25.01 1.2 34.1 52 -7.5 18.5
17:20 1018 30.06 847 25.01 1.3 34.3 53 -7.3 18.9
17:25 1018 30.06 847 25.01 1.3 34.4 52 -7.4 18.7
17:30 1017 30.03 847 25.01 1.3 34.3 52 -7.4 18.6
17:35 1017 30.03 847 25.01 1.2 34.2 51 -7.7 18.1
17:40 1017 30.03 847 25.01 0.9 33.7 53 -7.7 18.1
17:45 1017 30.03 847 25.01 0.3 32.5 56 -7.6 18.4
17:50 1018 30.06 847 25.01 -0.2 31.6 57 -7.8 18
17:55 1018 30.06 847 25.01 -0.4 31.3 59 -7.4 18.7
18:00 1018 30.06 847 25.01 -0.3 31.4 59 -7.4 18.6
18:05 1017 30.03 847 25.01 -0.5 31.1 59 -7.5 18.5
18:10 1017 30.03 847 25.01 -0.8 30.5 60 -7.6 18.3
18:15 1017 30.03 847 25.01 -1.2 29.9 61 -7.8 18
18:20 1017 30.03 847 25.01 -1.3 29.6 61 -7.9 17.8
18:25 1017 30.03 847 25.01 -1.4 29.5 61 -7.9 17.8
18:30 1017 30.03 846 24.98 -1.3 29.6 62 -7.7 18.1
18:35 1017 30.03 846 24.98 -1.5 29.3 62 -7.8 17.9
18:40 1017 30.03 846 24.98 -1.5 29.2 62 -7.8 17.9
18:45 1017 30.03 846 24.98 -1.8 28.8 64 -7.7 18.1
18:50 1017 30.03 846 24.98 -1.8 28.8 62 -8.1 17.4
18:55 1017 30.03 846 24.98 -1.6 29.2 60 -8.4 16.9
19:00 1017 30.03 846 24.98 -1.6 29.1 60 -8.4 16.9
19:05 1017 30.03 846 24.98 -1.7 28.9 62 -8.1 17.4
19:10 1017 30.03 846 24.98 -1.8 28.8 63 -8 17.5
19:15 1017 30.03 846 24.98 -2 28.4 65 -7.7 18.2
19:20 1017 30.03 846 24.98 -2.3 27.9 67 -7.5 18.5
19:25 1017 30.03 846 24.98 -2.5 27.4 68 -7.6 18.3
19:30 1017 30.03 846 24.98 -2.6 27.3 69 -7.6 18.4
19:35 1017 30.03 846 24.98 -2.6 27.3 69 -7.6 18.4
19:40 1017 30.03 846 24.98 -2.6 27.4 68 -7.7 18.2
19:45 1017 30.03 846 24.98 -2.3 27.9 66 -7.9 17.9
19:50 1017 30.03 846 24.98 -2 28.4 65 -7.8 18
19:55 1017 30.03 846 24.98 -2 28.3 65 -7.8 18
20:00 1017 30.03 846 24.98 -2.3 27.9 66 -7.7 18.1
20:05 1017 30.03 846 24.98 -2.5 27.5 67 -7.7 18.1
20:10 1017 30.03 846 24.98 -2.4 27.7 66 -7.9 17.8
20:15 1017 30.03 846 24.98 -2.3 27.8 66 -7.8 18
20:20 1017 30.03 846 24.98 -2.3 27.8 67 -7.7 18.2
20:25 1017 30.03 846 24.98 -2.6 27.4 67 -7.9 17.8
20:30 1017 30.03 846 24.98 -2.4 27.8 66 -7.8 18
20:35 1017 30.03 846 24.98 -2.4 27.6 67 -7.7 18.1
20:40 1017 30.03 846 24.98 -2.4 27.7 66 -7.8 17.9
20:45 1017 30.03 846 24.98 -2.1 28.2 65 -7.9 17.8
20:50 1017 30.03 846 24.98 -1.9 28.7 64 -7.8 18
20:55 1017 30.03 846 24.98 -2.1 28.3 66 -7.6 18.2
21:00 1017 30.03 846 24.98 -2.5 27.5 66 -8.1 17.4
21:05 1017 30.03 846 24.98 -2.9 26.7 68 -8.1 17.4
21:10 1017 30.03 846 24.98 -3.3 26 70 -8.1 17.4
21:15 1017 30.03 846 24.98 -3.5 25.6 70 -8.3 17.1
21:20 1017 30.03 846 24.98 -2.9 26.8 65 -8.5 16.7
21:25 1017 30.03 846 24.98 -2.2 28 63 -8.3 17.1
21:30 1017 30.03 846 24.98 -2.2 28.1 65 -7.9 17.8
21:35 1017 30.03 846 24.98 -2.3 27.9 65 -8 17.6
21:40 1017 30.03 846 24.98 -2.2 28 66 -7.7 18.1
21:45 1017 30.03 846 24.98 -2.6 27.4 67 -8 17.7
21:50 1017 30.03 846 24.98 -3 26.5 68 -8.2 17.2
21:55 1017 30.03 846 24.98 -3.2 26.3 67 -8.5 16.7
22:00 1017 30.03 846 24.98 -3.2 26.2 66 -8.6 16.4
22:05 1017 30.03 846 24.98 -3.2 26.3 64 -9.1 15.6
22:10 1017 30.03 846 24.98 -2.3 27.9 63 -8.4 16.9
22:15 1017 30.03 846 24.98 -2.2 28 65 -7.9 17.8
22:20 1017 30.03 846 24.98 -2.6 27.3 67 -7.9 17.8
22:25 1017 30.03 846 24.98 -2.6 27.3 67 -8 17.7
22:30 1017 30.03 846 24.98 -2.8 27 67 -8 17.6
22:35 1017 30.03 846 24.98 -2.7 27.2 66 -8.2 17.3
22:40 1017 30.03 846 24.98 -2.7 27.1 66 -8.2 17.3
22:45 1017 30.03 846 24.98 -2.3 27.9 66 -7.7 18.1
22:50 1017 30.03 846 24.98 -1.9 28.6 65 -7.6 18.3
22:55 1017 30.03 846 24.98 -2.5 27.5 66 -8 17.7
23:00 1017 30.03 846 24.98 -3.1 26.4 67 -8.5 16.7
23:05 1017 30.03 846 24.98 -2.8 27 64 -8.7 16.4
23:10 1017 30.03 846 24.98 -2.8 27 66 -8.2 17.2
23:15 1017 30.03 846 24.98 -2.7 27.2 67 -8 17.6
23:20 1017 30.03 846 24.98 -2.4 27.7 65 -8.1 17.4
23:25 1017 30.03 846 24.98 -2.4 27.6 65 -8.2 17.3
23:30 1017 30.03 846 24.98 -2.1 28.3 63 -8.2 17.2
23:35 1017 30.03 846 24.98 -1.8 28.7 61 -8.3 17.1
23:40 1017 30.03 846 24.98 -1.5 29.3 61 -8.1 17.4
23:45 1017 30.03 846 24.98 -1.4 29.4 61 -8 17.5
23:50 1017 30.03 846 24.98 -1.3 29.6 60 -8 17.6
23:55 1017 30.03 846 24.98 -1.8 28.8 65 -7.4 18.6
24:00 1017 30.03 846 24.98 -2.8 26.9 73 -7.1 19.2